Pagrindinis puslapis
METAR-TAF:

METAR-TAF

Oro uostai :

Kittilä, Suomija

platuma: 67-42N, ilguma: 024-51E, Aukštis: 196 m

Dabartinis oras

Ataskaita buvo paskelbta 34 minutes, ne 05:20 UTC
Vėjas 12 kt iš Šiaurės Rytų
Temperatūra -4°C
Drėgmė 86%
Slėgis 995 hPa
Matomumas: 5000 m
Apsiniaukę ne aukštis 1700 ft
sniegas

METAR: EFKT 020520Z AUTO 04012KT 5000 -SN OVC017 M04/M06 Q0995

Laikas: 07:54 (05:54 UTC)

Prognozė

Ataskaita buvo paskelbta 2 valandos ir 46 minutes, ne 03:08 UTC
Prognozė galioja nuo 02 metu 03 UTC su 02 metu 12 UTC
Vėjas 10 kt iš Šiaurės Rytų
Matomumas: 8000 m
Su prošvaistėmis ne aukštis 3000 ft
sniegas
Laikinai
nuo 02 metu 03 UTC su 02 metu 06 UTC
Matomumas: 2000 m
Su prošvaistėmis ne aukštis 1400 ft
sniegas
Laikinai
nuo 02 metu 06 UTC su 02 metu 09 UTC
Matomumas: 4000 m

TAF: EFKT 020308Z 0203/0212 05010KT 8000 -SN BKN030 TEMPO 0203/0206 2000 SN BKN014 TEMPO 0206/0209 4000

Orai ataskaitas ir orų prognozės (METAR, TAF).

turimą stotys yra geltonos ir raudonos taškus žemėlapyje.

Perkelti pele per norėdami pamatyti stoties vardą.

Tada spustelėkite, norėdami matyti oro stebėjimo ir prognozės.

Norėdami pakeisti žemėlapį: spustelėkite ant žalios mygtukų su juodo kryžiaus žemyn,; žalią mygtuką su brūkšneliu, jei norite nutolinti; arba žalių rodyklių gretimoms žemėlapius.


METAR-TAF: